Time;durP1;ratioP1;P1;durP2;ratioP2;P2;SDS_P1;SDS_P2;PMS_P1;PMS_P2;Temp;Humidity;BMP_temperature;BMP_pressure;BME280_temperature;BME280_humidity;BME280_pressure;Samples;Min_cycle;Max_cycle;Signal;HPM_P1;HPM_P2
2023/10/12 00:01:33;;;;;;;1999.90;999.90;;;;;;;16.95;97.93;101052.44;10543607;28;20048;-66
2023/10/12 00:06:37;;;;;;;1999.90;999.90;;;;;;;16.95;99.72;101052.44;10543813;28;20059;-66
2023/10/12 00:11:45;;;;;;;1999.90;999.90;;;;;;;16.95;100.00;101055.91;10543560;28;20048;-66
2023/10/12 00:16:47;;;;;;;1999.90;999.90;;;;;;;16.83;100.00;101059.50;10542627;28;20554;-66
2023/10/12 00:22:09;;;;;;;1999.90;999.90;;;;;;;16.80;100.00;101055.28;10542722;28;20409;-66
2023/10/12 00:27:14;;;;;;;1999.90;999.90;;;;;;;16.76;100.00;101042.44;10542313;28;20048;-66
2023/10/12 00:32:16;;;;;;;1999.90;999.90;;;;;;;16.70;100.00;101078.13;10524773;28;20055;-66
2023/10/12 00:37:18;;;;;;;1999.90;999.90;;;;;;;16.65;100.00;101091.72;10542399;28;20081;-66
2023/10/12 00:42:24;;;;;;;1999.90;999.90;;;;;;;16.77;100.00;101083.78;10541473;28;20087;-66
2023/10/12 00:47:43;;;;;;;1999.90;999.90;;;;;;;16.61;100.00;101087.63;10542554;28;20063;-65
2023/10/12 00:58:17;;;;;;;1999.90;999.90;;;;;;;16.37;100.00;101100.09;10502798;28;20048;-65
2023/10/12 01:03:35;;;;;;;1999.90;999.90;;;;;;;16.44;100.00;101117.16;10523761;28;20058;-65
2023/10/12 01:08:42;;;;;;;1999.90;999.90;;;;;;;16.27;100.00;101121.97;10497768;28;20080;-66
2023/10/12 01:19:05;;;;;;;1999.90;999.90;;;;;;;16.26;100.00;101122.91;10499085;28;20055;-66
2023/10/12 01:24:11;;;;;;;1999.90;999.90;;;;;;;16.26;100.00;101135.28;10497143;28;20048;-66
2023/10/12 01:29:21;;;;;;;1999.90;999.90;;;;;;;16.18;100.00;101124.47;10498907;28;20048;-66
2023/10/12 01:34:24;;;;;;;1999.90;999.90;;;;;;;15.97;100.00;101125.97;10481750;28;20048;-67
2023/10/12 01:39:28;;;;;;;1999.90;999.90;;;;;;;16.13;100.00;101125.63;10497608;28;20041;-66
2023/10/12 01:44:32;;;;;;;1999.90;999.90;;;;;;;16.14;100.00;101140.53;10498639;28;20059;-66
2023/10/12 01:49:36;;;;;;;1999.90;999.90;;;;;;;16.11;100.00;101140.75;10498844;28;20124;-67
2023/10/12 01:54:43;;;;;;;1999.90;999.90;;;;;;;16.16;100.00;101135.97;10498257;28;20059;-67
2023/10/12 01:59:46;;;;;;;1999.90;999.90;;;;;;;16.11;100.00;101140.75;10497453;28;20406;-67
2023/10/12 02:04:48;;;;;;;1999.90;999.90;;;;;;;16.05;100.00;101132.44;10497354;28;20407;-67
2023/10/12 02:09:51;;;;;;;1999.90;999.90;;;;;;;16.16;100.00;101129.84;10496040;28;20058;-67
2023/10/12 02:14:54;;;;;;;1999.90;999.90;;;;;;;16.25;100.00;101121.22;10498027;28;20131;-67
2023/10/12 02:19:56;;;;;;;1999.90;999.90;;;;;;;16.05;100.00;101113.97;10497858;28;20048;-68
2023/10/12 02:25:18;;;;;;;1999.90;999.90;;;;;;;16.02;100.00;101112.41;10496979;28;20452;-68
2023/10/12 02:30:28;;;;;;;1999.90;999.90;;;;;;;15.97;100.00;101127.75;10497546;28;20106;-67
2023/10/12 02:35:37;;;;;;;1999.90;999.90;;;;;;;16.20;100.00;101127.81;10496897;28;20508;-67
2023/10/12 02:40:41;;;;;;;1999.90;999.90;;;;;;;16.35;100.00;101111.63;10497310;28;20055;-68
2023/10/12 02:45:48;;;;;;;1999.90;999.90;;;;;;;16.35;100.00;101124.81;10496579;28;20086;-68
2023/10/12 02:50:57;;;;;;;1999.90;999.90;;;;;;;16.03;100.00;101151.06;10502192;28;20127;-68
2023/10/12 02:56:04;;;;;;;1999.90;999.90;;;;;;;16.23;100.00;101149.56;10504557;28;20079;-68
2023/10/12 03:01:12;;;;;;;1999.90;999.90;;;;;;;16.24;100.00;101150.38;10503256;28;20048;-68
2023/10/12 03:06:23;;;;;;;1999.90;999.90;;;;;;;15.97;100.00;101139.16;10513364;28;20048;-67
2023/10/12 03:11:27;;;;;;;1999.90;999.90;;;;;;;16.22;100.00;101133.81;10545809;28;20121;-68
2023/10/12 03:16:33;;;;;;;1999.90;999.90;;;;;;;16.14;100.00;101123.84;10545115;28;20047;-68
2023/10/12 03:21:37;;;;;;;1999.90;999.90;;;;;;;16.14;100.00;101122.03;10475223;22;20140;-61
2023/10/12 03:26:39;;;;;;;1999.90;999.90;;;;;;;16.19;100.00;101119.06;10373704;28;20054;-61
2023/10/12 03:36:47;;;;;;;1999.90;999.90;;;;;;;16.26;100.00;101072.72;10372994;28;20057;-61
2023/10/12 03:47:29;;;;;;;1999.90;999.90;;;;;;;16.29;100.00;101143.81;10372070;28;20506;-61
2023/10/12 03:52:39;;;;;;;1999.90;999.90;;;;;;;16.24;100.00;101139.81;10355154;28;20050;-61
2023/10/12 03:57:59;;;;;;;1999.90;999.90;;;;;;;16.19;100.00;101139.31;10356467;28;20054;-61
2023/10/12 04:03:12;;;;;;;1999.90;999.90;;;;;;;16.09;100.00;101142.69;10356379;28;20050;-61
2023/10/12 04:18:29;;;;;;;1999.90;999.90;;;;;;;15.97;100.00;101139.16;10371619;28;20056;-62
2023/10/12 04:28:36;;;;;;;1999.90;999.90;;;;;;;15.94;100.00;101144.66;10371337;28;20130;-61
2023/10/12 04:34:26;;;;;;;1999.90;999.90;;;;;;;15.77;100.00;101143.28;10371157;28;20132;-62
2023/10/12 05:00:06;;;;;;;1999.90;999.90;;;;;;;15.72;100.00;101157.75;10352983;28;20103;-61
2023/10/12 05:05:14;;;;;;;1999.90;999.90;;;;;;;15.69;100.00;101177.28;10353507;28;20484;-61
2023/10/12 05:10:18;;;;;;;1999.90;999.90;;;;;;;15.72;100.00;101177.06;10352916;28;20056;-62
2023/10/12 05:15:20;;;;;;;1999.90;999.90;;;;;;;15.70;100.00;101178.13;10369765;28;20128;-61
2023/10/12 05:20:24;;;;;;;1999.90;999.90;;;;;;;15.68;100.00;101175.59;10369482;28;20142;-61
2023/10/12 05:25:38;;;;;;;1999.90;999.90;;;;;;;15.56;100.00;101189.69;10353009;28;20049;-61
2023/10/12 05:30:48;;;;;;;1999.90;999.90;;;;;;;15.51;100.00;101189.16;10368895;28;20505;-61
2023/10/12 05:35:52;;;;;;;1999.90;999.90;;;;;;;15.66;100.00;101185.41;10353092;28;20058;-61
2023/10/12 05:40:55;;;;;;;1999.90;999.90;;;;;;;15.51;100.00;101186.53;10368964;28;20407;-61
2023/10/12 05:46:04;;;;;;;1999.90;999.90;;;;;;;15.44;100.00;101186.13;10368953;28;20054;-61
2023/10/12 05:51:09;;;;;;;1999.90;999.90;;;;;;;15.44;100.00;101183.50;10368779;28;20550;-61
2023/10/12 05:56:12;;;;;;;1999.90;999.90;;;;;;;15.48;100.00;101207.84;10368087;28;20384;-61
2023/10/12 06:01:31;;;;;;;1999.90;999.90;;;;;;;15.42;100.00;101212.63;10368455;28;20107;-61
2023/10/12 06:06:41;;;;;;;1999.90;999.90;;;;;;;15.56;100.00;101221.34;10368968;28;20060;-61
2023/10/12 06:11:46;;;;;;;1999.90;999.90;;;;;;;15.60;100.00;101233.34;10351839;28;20069;-61
2023/10/12 06:16:54;;;;;;;1999.90;999.90;;;;;;;15.47;100.00;101230.78;10350997;28;20140;-61
2023/10/12 06:22:41;;;;;;;1999.90;999.90;;;;;;;15.55;100.00;101239.00;10367456;28;20085;-61
2023/10/12 06:27:23;;;;;;;1999.90;999.90;;;;;;;15.51;100.00;101231.41;10381869;28;20483;-61
2023/10/12 06:32:32;;;;;;;1999.90;999.90;;;;;;;15.70;100.00;101238.81;10374389;28;20454;-61
2023/10/12 06:53:36;;;;;;;1999.90;999.90;;;;;;;15.67;100.00;101249.59;10373717;28;20525;-61
2023/10/12 06:58:39;;;;;;;1999.90;999.90;;;;;;;15.41;100.00;101274.25;10373523;28;20058;-61
2023/10/12 07:03:42;;;;;;;1999.90;999.90;;;;;;;15.65;100.00;101285.81;10374059;28;20049;-62
2023/10/12 07:08:46;;;;;;;1999.90;999.90;;;;;;;15.70;100.00;101284.56;10373891;28;20079;-62
2023/10/12 07:13:49;;;;;;;1999.90;999.90;;;;;;;15.57;100.00;101294.31;10355945;28;20514;-62
2023/10/12 07:18:53;;;;;;;1999.90;999.90;;;;;;;15.60;100.00;101299.34;10373482;28;20050;-61
2023/10/12 07:24:15;;;;;;;1999.90;999.90;;;;;;;15.69;100.00;101297.88;10372410;28;20061;-62
2023/10/12 07:29:35;;;;;;;1999.90;999.90;;;;;;;15.66;100.00;101312.13;10372701;28;20401;-61
2023/10/12 07:34:37;;;;;;;1999.90;999.90;;;;;;;15.58;100.00;101320.59;10373029;28;20133;-61
2023/10/12 07:39:42;;;;;;;1999.90;999.90;;;;;;;15.50;100.00;101327.34;10372182;28;20482;-62
2023/10/12 07:44:54;;;;;;;1999.90;999.90;;;;;;;15.65;100.00;101330.69;10372954;28;20081;-62
2023/10/12 07:49:57;;;;;;;1999.90;999.90;;;;;;;15.61;100.00;101333.53;10372050;28;20050;-62
2023/10/12 07:55:00;;;;;;;1999.90;999.90;;;;;;;15.53;100.00;101332.41;10372387;28;20057;-62
2023/10/12 08:05:24;;;;;;;1999.90;999.90;;;;;;;14.68;100.00;101351.31;10355647;28;20057;-61
2023/10/12 08:21:00;;;;;;;1999.90;999.90;;;;;;;14.25;100.00;101385.66;10370694;28;20430;-61
2023/10/12 08:26:03;;;;;;;1999.90;999.90;;;;;;;14.04;100.00;101380.00;10372010;28;20049;-61
2023/10/12 08:31:20;;;;;;;1999.90;999.90;;;;;;;14.00;100.00;101386.38;10370818;28;20402;-61
2023/10/12 08:36:23;;;;;;;1999.90;999.90;;;;;;;13.87;100.00;101379.25;10371102;28;20056;-61
2023/10/12 08:52:04;;;;;;;1999.90;999.90;;;;;;;13.74;100.00;101391.47;10355960;28;20054;-61
2023/10/12 08:57:35;;;;;;;1999.90;999.90;;;;;;;13.97;100.00;101391.81;10354366;28;20049;-61
2023/10/12 09:02:39;;;;;;;1999.90;999.90;;;;;;;14.06;100.00;101394.72;10354132;28;20046;-61
2023/10/12 09:07:45;;;;;;;1999.90;999.90;;;;;;;14.00;100.00;101386.38;10353169;28;20058;-61
2023/10/12 09:12:48;;;;;;;1999.90;999.90;;;;;;;13.94;100.00;101379.72;10370052;28;20053;-61
2023/10/12 09:17:50;;;;;;;1999.90;999.90;;;;;;;13.83;100.00;101347.94;10370039;28;20085;-61
2023/10/12 09:22:58;;;;;;;1999.90;999.90;;;;;;;13.73;100.00;101390.63;10368814;28;20507;-61
2023/10/12 09:28:00;;;;;;;1999.90;999.90;;;;;;;13.85;100.00;101394.28;10369555;28;20083;-61
2023/10/12 09:33:29;;;;;;;1999.90;999.90;;;;;;;13.85;100.00;101393.44;10368738;28;20124;-61
2023/10/12 09:38:30;;;;;;;1999.90;999.90;;;;;;;14.13;100.00;101396.03;10368540;28;20510;-61
2023/10/12 09:43:38;;;;;;;1999.90;999.90;;;;;;;14.05;100.00;101385.13;10351740;28;20048;-61
2023/10/12 09:48:44;;;;;;;1999.90;999.90;;;;;;;14.12;100.00;101396.13;10368991;28;20088;-61
2023/10/12 09:53:58;;;;;;;1999.90;999.90;;;;;;;14.18;100.00;101389.66;10351319;28;20487;-61
2023/10/12 09:59:07;;;;;;;1999.90;999.90;;;;;;;14.20;100.00;101393.84;10353523;28;20053;-61
2023/10/12 10:14:34;;;;;;;1999.90;999.90;;;;;;;14.48;100.00;101350.78;10358254;28;20050;-62
2023/10/12 10:19:36;;;;;;;1999.90;999.90;;;;;;;14.67;100.00;101342.53;10375391;28;20125;-61
2023/10/12 10:24:46;;;;;;;1999.90;999.90;;;;;;;14.86;100.00;101365.06;10374406;28;20441;-62
2023/10/12 10:29:56;;;;;;;1999.90;999.90;;;;;;;15.16;100.00;101370.09;10357892;28;20053;-61
2023/10/12 10:34:59;;;;;;;1999.90;999.90;;;;;;;15.26;100.00;101372.09;10342105;28;20060;-61
2023/10/12 10:40:07;;;;;;;1999.90;999.90;;;;;;;15.50;100.00;101366.91;10357445;28;20050;-61
2023/10/12 10:45:15;;;;;;;1999.90;999.90;;;;;;;15.45;100.00;101351.44;10374074;28;20415;-61
2023/10/12 10:50:20;;;;;;;1999.90;999.90;;;;;;;15.61;100.00;101351.19;10374533;28;20125;-61
2023/10/12 10:55:25;;;;;;;1999.90;999.90;;;;;;;15.63;100.00;101344.00;10373725;28;20050;-61
2023/10/12 11:00:33;;;;;;;1999.90;999.90;;;;;;;15.75;100.00;101330.00;10373473;28;20072;-61
2023/10/12 11:05:38;;;;;;;1999.90;999.90;;;;;;;15.96;100.00;101351.38;10374033;28;20054;-61
2023/10/12 11:16:20;;;;;;;1999.90;999.90;;;;;;;16.19;100.00;101332.16;10373773;28;20129;-62
2023/10/12 11:21:23;;;;;;;1999.90;999.90;;;;;;;16.50;100.00;101326.31;10358163;28;20054;-62
2023/10/12 11:26:26;;;;;;;1999.90;999.90;;;;;;;16.58;100.00;101314.34;10373355;28;20049;-61
2023/10/12 11:31:31;;;;;;;1999.90;999.90;;;;;;;16.59;100.00;101302.81;10373208;28;20121;-61
2023/10/12 11:36:35;;;;;;;1999.90;999.90;;;;;;;16.83;100.00;101292.22;10373039;28;20046;-62
2023/10/12 11:41:38;;;;;;;1999.90;999.90;;;;;;;16.70;100.00;101281.69;10355703;28;20125;-62
2023/10/12 11:46:44;;;;;;;1999.90;999.90;;;;;;;16.64;100.00;101288.31;10355016;28;20494;-62
2023/10/12 11:51:53;;;;;;;1999.90;999.90;;;;;;;16.69;100.00;101291.44;10355643;28;20046;-62
2023/10/12 11:56:55;;;;;;;1999.90;999.90;;;;;;;16.84;100.00;101291.22;10372435;28;20071;-62
2023/10/12 12:02:06;;;;;;;1999.90;999.90;;;;;;;16.76;100.00;101290.97;10371608;28;20499;-62
2023/10/12 12:07:10;;;;;;;1999.90;999.90;;;;;;;16.64;100.00;101283.03;10371532;28;20065;-62
2023/10/12 12:12:13;;;;;;;1999.90;999.90;;;;;;;16.86;100.00;101290.19;10354242;28;20129;-63
2023/10/12 12:17:15;;;;;;;1999.90;999.90;;;;;;;16.80;100.00;101289.78;10354419;28;20067;-62
2023/10/12 12:22:22;;;;;;;1999.90;999.90;;;;;;;16.69;100.00;101280.00;10370085;28;20062;-63
2023/10/12 12:27:39;;;;;;;1999.90;999.90;;;;;;;16.71;100.00;101270.19;10371503;28;20133;-62
2023/10/12 12:32:41;;;;;;;1999.90;999.90;;;;;;;16.52;100.00;101268.06;10355456;28;20577;-62
2023/10/12 12:37:44;;;;;;;1999.90;999.90;;;;;;;16.62;100.00;101269.06;10371088;28;20049;-62
2023/10/12 12:42:46;;;;;;;1999.90;999.90;;;;;;;16.72;100.00;101271.84;10352926;28;20058;-63
2023/10/12 12:47:49;;;;;;;1999.90;999.90;;;;;;;16.84;100.00;101265.66;10370225;28;20405;-62
2023/10/12 12:52:51;;;;;;;1999.90;999.90;;;;;;;17.04;100.00;101258.81;10337209;28;20050;-62
2023/10/12 12:57:57;;;;;;;1999.90;999.90;;;;;;;17.33;100.00;101249.59;10369840;28;20482;-62
2023/10/12 13:03:00;;;;;;;1999.90;999.90;;;;;;;17.47;100.00;101246.69;10353388;28;20176;-62
2023/10/12 13:08:07;;;;;;;1999.90;999.90;;;;;;;17.43;100.00;101234.66;10369567;28;20513;-62
2023/10/12 13:13:10;;;;;;;1999.90;999.90;;;;;;;17.24;100.00;101233.47;10369626;28;20093;-63
2023/10/12 13:18:15;;;;;;;1999.90;999.90;;;;;;;17.19;100.00;101232.16;10369873;28;20074;-63
2023/10/12 13:23:18;;;;;;;1999.90;999.90;;;;;;;17.20;100.00;101241.78;10336544;28;20054;-63
2023/10/12 13:28:21;;;;;;;1999.90;999.90;;;;;;;17.30;100.00;101242.75;10368919;28;20474;-62
2023/10/12 13:33:27;;;;;;;1999.90;999.90;;;;;;;17.42;100.00;101254.16;10367757;28;20054;-63
2023/10/12 13:38:33;;;;;;;1999.90;999.90;;;;;;;17.29;100.00;101250.78;10369097;28;20049;-62
2023/10/12 13:43:37;;;;;;;1999.90;999.90;;;;;;;17.12;100.00;101252.94;10368843;28;20122;-63
2023/10/12 13:48:40;;;;;;;1999.90;999.90;;;;;;;17.14;100.00;101255.47;10350900;28;20431;-63
2023/10/12 13:53:46;;;;;;;1999.90;999.90;;;;;;;16.94;100.00;101254.38;10368115;28;20555;-62
2023/10/12 13:58:48;;;;;;;1999.90;999.90;;;;;;;16.75;100.00;101236.41;10368598;28;20125;-63
2023/10/12 14:03:55;;;;;;;1999.90;999.90;;;;;;;16.64;100.00;101239.84;10368298;28;20050;-62
2023/10/12 14:08:58;;;;;;;1999.90;999.90;;;;;;;16.54;100.00;101242.34;10366824;28;20122;-62
2023/10/12 14:14:02;;;;;;;1999.90;999.90;;;;;;;16.44;100.00;101244.88;10367715;28;20085;-62
2023/10/12 14:19:06;;;;;;;1999.90;999.90;;;;;;;16.40;100.00;101255.78;10350977;28;20061;-62
2023/10/12 14:24:08;;;;;;;1999.90;999.90;;;;;;;16.32;100.00;101264.25;10366926;28;20050;-62
2023/10/12 14:29:11;;;;;;;1999.90;999.90;;;;;;;16.27;100.00;101256.69;10367444;28;20072;-62
2023/10/12 14:34:14;;;;;;;1999.90;999.90;;;;;;;16.20;100.00;101283.69;10367245;28;20422;-62
2023/10/12 14:39:23;;;;;;;1999.90;999.90;;;;;;;16.37;100.00;101312.31;10349934;28;20384;-62
2023/10/12 14:44:27;;;;;;;1999.90;999.90;;;;;;;16.13;100.00;101318.47;10368896;28;20042;-62
2023/10/12 14:49:33;;;;;;;1999.90;999.90;;;;;;;16.05;100.00;101312.03;10374067;28;20141;-62
2023/10/12 14:54:36;;;;;;;1999.90;999.90;;;;;;;16.06;100.00;101282.88;10374397;28;20099;-62
2023/10/12 14:59:38;;;;;;;1999.90;999.90;;;;;;;15.74;100.00;101264.06;10373489;28;20054;-62
2023/10/12 15:04:42;;;;;;;1999.90;999.90;;;;;;;15.79;100.00;101248.78;10340606;28;20056;-62
2023/10/12 15:09:49;;;;;;;1999.90;999.90;;;;;;;16.14;100.00;101234.78;10373256;28;20456;-62
2023/10/12 15:14:54;;;;;;;1999.90;999.90;;;;;;;16.27;100.00;101226.78;10373800;28;20054;-62
2023/10/12 15:19:56;;;;;;;1999.90;999.90;;;;;;;16.27;100.00;101229.41;10373280;28;20057;-62
2023/10/12 15:25:01;;;;;;;1999.90;999.90;;;;;;;16.26;100.00;101235.69;10355303;28;20117;-63
2023/10/12 15:30:04;;;;;;;1999.90;999.90;;;;;;;16.13;100.00;101226.00;10372631;28;20409;-63
2023/10/12 15:35:10;;;;;;;1999.90;999.90;;;;;;;16.09;100.00;101218.44;10403806;23;20052;-67
2023/10/12 15:40:26;;;;;;;1999.90;999.90;;;;;;;16.13;100.00;101226.00;10501336;28;20048;-67
2023/10/12 15:45:28;;;;;;;1999.90;999.90;;;;;;;16.13;100.00;101235.75;10501293;28;20417;-66
2023/10/12 15:50:31;;;;;;;1999.90;999.90;;;;;;;16.14;100.00;101237.44;10502675;28;20079;-66
2023/10/12 15:55:35;;;;;;;1999.90;999.90;;;;;;;16.17;100.00;101242.47;10499494;28;20127;-67
2023/10/12 16:00:38;;;;;;;1999.90;999.90;;;;;;;16.13;100.00;101249.78;10501608;28;20476;-67
2023/10/12 16:05:43;;;;;;;1999.90;999.90;;;;;;;16.13;100.00;101233.09;10500983;28;20052;-67
2023/10/12 16:10:48;;;;;;;1999.90;999.90;;;;;;;16.30;100.00;101237.13;10484052;28;20049;-67
2023/10/12 16:15:54;;;;;;;1999.90;999.90;;;;;;;16.04;100.00;101231.97;10500445;28;20063;-66
2023/10/12 16:21:06;;;;;;;1999.90;999.90;;;;;;;16.19;100.00;101227.38;10483739;28;20079;-66
2023/10/12 16:26:12;;;;;;;1999.90;999.90;;;;;;;16.14;100.00;101222.41;10500698;28;20128;-66
2023/10/12 16:31:16;;;;;;;1999.90;999.90;;;;;;;16.10;100.00;101214.81;10500509;28;20291;-66
2023/10/12 16:36:18;;;;;;;1999.90;999.90;;;;;;;16.13;100.00;101230.44;10500403;28;20070;-66
2023/10/12 16:41:20;;;;;;;1999.90;999.90;;;;;;;16.15;100.00;101225.88;10499879;28;20044;-66
2023/10/12 16:46:24;;;;;;;1999.90;999.90;;;;;;;15.98;100.00;101225.34;10500367;28;20136;-66
2023/10/12 16:51:26;;;;;;;1999.90;999.90;;;;;;;15.97;100.00;101222.84;10482438;28;20102;-66
2023/10/12 16:56:32;;;;;;;1999.90;999.90;;;;;;;16.09;100.00;101221.09;10499299;28;20082;-66
2023/10/12 17:01:35;;;;;;;1999.90;999.90;;;;;;;16.18;100.00;101227.47;10482061;28;20045;-66
2023/10/12 17:06:38;;;;;;;1999.90;999.90;;;;;;;16.02;100.00;101230.38;10499221;28;20072;-66
2023/10/12 17:11:41;;;;;;;1999.90;999.90;;;;;;;16.03;100.00;101221.53;10498765;28;20378;-65
2023/10/12 17:16:43;;;;;;;1999.90;999.90;;;;;;;16.07;100.00;101228.25;10498062;28;20055;-65
2023/10/12 17:21:46;;;;;;;1999.90;999.90;;;;;;;15.98;100.00;101232.41;10499063;28;20066;-66
2023/10/12 17:26:50;;;;;;;1999.90;999.90;;;;;;;15.97;100.00;101230.75;10499005;28;20059;-66
2023/10/12 17:31:53;;;;;;;1999.90;999.90;;;;;;;16.08;100.00;101235.22;10498896;28;20481;-66
2023/10/12 17:36:59;;;;;;;1999.90;999.90;;;;;;;15.97;100.00;101239.50;10496850;28;20493;-66
2023/10/12 17:42:01;;;;;;;1999.90;999.90;;;;;;;16.04;100.00;101249.59;10498603;28;20127;-66
2023/10/12 17:47:03;;;;;;;1999.90;999.90;;;;;;;16.05;100.00;101238.94;10498512;28;20045;-66
2023/10/12 17:52:06;;;;;;;1999.90;999.90;;;;;;;16.20;100.00;101233.47;10498431;28;20056;-66
2023/10/12 17:57:08;;;;;;;1999.90;999.90;;;;;;;16.19;100.00;101237.06;10498260;28;20048;-66
2023/10/12 18:02:11;;;;;;;1999.90;999.90;;;;;;;16.24;100.00;101227.88;10497520;28;20595;-66
2023/10/12 18:07:14;;;;;;;1999.90;999.90;;;;;;;16.26;100.00;101220.66;10497444;28;20489;-66
2023/10/12 18:12:16;;;;;;;1999.90;999.90;;;;;;;16.16;100.00;101217.84;10497383;28;20439;-66
2023/10/12 18:17:19;;;;;;;1999.90;999.90;;;;;;;16.27;100.00;101239.97;10495996;28;20524;-66
2023/10/12 18:22:22;;;;;;;1999.90;999.90;;;;;;;16.24;100.00;101234.94;10503723;28;20404;-66
2023/10/12 18:27:27;;;;;;;1999.90;999.90;;;;;;;16.19;100.00;101237.06;10505335;28;20135;-66
2023/10/12 18:32:30;;;;;;;1999.90;999.90;;;;;;;16.20;100.00;101242.25;10505726;28;20045;-66
2023/10/12 18:37:33;;;;;;;1999.90;999.90;;;;;;;16.30;100.00;101235.31;10504995;28;20170;-66
2023/10/12 18:42:35;;;;;;;1999.90;999.90;;;;;;;16.40;100.00;101226.72;10503446;28;20449;-66
2023/10/12 18:47:38;;;;;;;1999.90;999.90;;;;;;;16.39;100.00;101235.59;10504553;28;20178;-66
2023/10/12 18:52:40;;;;;;;1999.90;999.90;;;;;;;16.29;100.00;101246.84;10504386;28;20047;-67
2023/10/12 18:57:44;;;;;;;1999.90;999.90;;;;;;;16.32;100.00;101246.63;10504446;28;20056;-67
2023/10/12 19:02:49;;;;;;;1999.90;999.90;;;;;;;16.40;100.00;101237.28;10503404;28;20044;-67
2023/10/12 19:07:52;;;;;;;1999.90;999.90;;;;;;;16.38;100.00;101249.78;10486724;28;20102;-67
2023/10/12 19:12:55;;;;;;;1999.90;999.90;;;;;;;16.31;100.00;101252.88;10503592;28;20490;-67
2023/10/12 19:18:11;;;;;;;1999.90;999.90;;;;;;;16.37;100.00;101246.25;10503319;28;20494;-67
2023/10/12 19:23:14;;;;;;;1999.90;999.90;;;;;;;16.39;100.00;101244.38;10485556;28;20511;-67
2023/10/12 19:28:18;;;;;;;1999.90;999.90;;;;;;;16.42;100.00;101238.84;10503672;28;20051;-67
2023/10/12 19:33:22;;;;;;;1999.90;999.90;;;;;;;16.43;100.00;101231.78;10503061;28;20066;-67
2023/10/12 19:38:24;;;;;;;1999.90;999.90;;;;;;;16.41;100.00;101231.03;10501306;28;20139;-67
2023/10/12 19:43:26;;;;;;;1999.90;999.90;;;;;;;16.30;100.00;101245.88;10502546;28;20405;-67
2023/10/12 19:48:29;;;;;;;1999.90;999.90;;;;;;;16.49;100.00;101255.94;10502860;28;20060;-67
2023/10/12 19:53:31;;;;;;;1999.90;999.90;;;;;;;16.42;100.00;101244.13;10501975;28;20503;-67
2023/10/12 19:58:34;;;;;;;1999.90;999.90;;;;;;;16.46;100.00;101250.03;10502382;28;20122;-67
2023/10/12 20:03:49;;;;;;;1999.90;999.90;;;;;;;16.47;100.00;101246.44;10500456;28;20048;-67
2023/10/12 20:08:53;;;;;;;1999.90;999.90;;;;;;;16.57;100.00;101239.47;10483715;28;20453;-67
2023/10/12 20:13:56;;;;;;;1999.90;999.90;;;;;;;16.65;100.00;101229.16;10501820;28;20389;-67
2023/10/12 20:18:58;;;;;;;1999.90;999.90;;;;;;;16.60;100.00;101239.25;10501589;28;20136;-67
2023/10/12 20:24:01;;;;;;;1999.90;999.90;;;;;;;16.60;100.00;101241.06;10501292;28;20049;-67
2023/10/12 20:29:03;;;;;;;1999.90;999.90;;;;;;;16.49;100.00;101237.44;10500510;28;20410;-67
2023/10/12 20:34:06;;;;;;;1999.90;999.90;;;;;;;16.58;100.00;101238.53;10500933;28;20068;-67
2023/10/12 20:39:09;;;;;;;1999.90;999.90;;;;;;;16.60;100.00;101233.13;10499950;28;20410;-67
2023/10/12 20:44:11;;;;;;;1999.90;999.90;;;;;;;16.57;100.00;101234.19;10499743;28;20040;-67
2023/10/12 20:49:14;;;;;;;1999.90;999.90;;;;;;;16.61;100.00;101233.03;10500247;28;20054;-67
2023/10/12 20:54:17;;;;;;;1999.90;999.90;;;;;;;16.47;100.00;101238.50;10500099;28;20048;-67
2023/10/12 20:59:26;;;;;;;1999.90;999.90;;;;;;;16.48;100.00;101241.03;10499886;28;20053;-67
2023/10/12 21:04:32;;;;;;;1999.90;999.90;;;;;;;16.51;100.00;101239.97;10499626;28;20048;-67
2023/10/12 21:09:35;;;;;;;1999.90;999.90;;;;;;;16.60;100.00;101228.69;10497720;28;20485;-67
2023/10/12 21:14:41;;;;;;;1999.90;999.90;;;;;;;16.63;100.00;101230.25;10499381;28;20055;-67
2023/10/12 21:19:53;;;;;;;1999.90;999.90;;;;;;;16.56;100.00;101229.88;10499295;28;20089;-67
2023/10/12 21:24:57;;;;;;;1999.90;999.90;;;;;;;16.75;100.00;101215.25;10481446;28;20052;-67
2023/10/12 21:29:59;;;;;;;1999.90;999.90;;;;;;;16.65;100.00;101215.94;10498223;28;20545;-67
2023/10/12 21:35:07;;;;;;;1999.90;999.90;;;;;;;16.59;100.00;101208.47;10498115;28;20074;-67
2023/10/12 21:45:31;;;;;;;1999.90;999.90;;;;;;;16.49;100.00;101207.50;10496929;28;20413;-67
2023/10/12 21:50:36;;;;;;;1999.90;999.90;;;;;;;16.67;100.00;101203.44;10497808;28;20140;-67
2023/10/12 21:55:39;;;;;;;1999.90;999.90;;;;;;;16.57;100.00;101199.84;10498316;28;20087;-67
2023/10/12 22:05:45;;;;;;;1999.90;999.90;;;;;;;16.53;100.00;101196.59;10498126;28;20058;-67
2023/10/12 22:10:52;;;;;;;1999.90;999.90;;;;;;;16.42;100.00;101206.28;10496216;28;20485;-67
2023/10/12 22:16:01;;;;;;;1999.90;999.90;;;;;;;16.41;100.00;101194.03;10497387;28;20585;-67
2023/10/12 22:21:04;;;;;;;1999.90;999.90;;;;;;;16.38;100.00;101189.00;10497786;28;20044;-67
2023/10/12 22:26:08;;;;;;;1999.90;999.90;;;;;;;16.43;100.00;101192.97;10497090;28;20500;-67
2023/10/12 22:31:11;;;;;;;1999.90;999.90;;;;;;;16.43;100.00;101198.25;10497472;28;20066;-67
2023/10/12 22:36:19;;;;;;;1999.90;999.90;;;;;;;16.41;100.00;101188.75;10496724;28;20543;-67
2023/10/12 22:41:22;;;;;;;1999.90;999.90;;;;;;;16.47;100.00;101198.84;10497392;28;20040;-67
2023/10/12 22:46:25;;;;;;;1999.90;999.90;;;;;;;16.66;100.00;101198.28;10496154;28;20062;-67
2023/10/12 22:51:27;;;;;;;1999.90;999.90;;;;;;;16.61;100.00;101190.72;10497262;28;20098;-67
2023/10/12 22:56:31;;;;;;;1999.90;999.90;;;;;;;16.55;100.00;101201.75;10496498;28;20052;-67
2023/10/12 23:01:34;;;;;;;1999.90;999.90;;;;;;;16.54;100.00;101202.72;10496948;28;20080;-67
2023/10/12 23:06:36;;;;;;;1999.90;999.90;;;;;;;16.61;100.00;101200.44;10498990;28;20052;-67
2023/10/12 23:11:39;;;;;;;1999.90;999.90;;;;;;;16.69;100.00;101193.63;10485928;28;20101;-67
2023/10/12 23:16:50;;;;;;;1999.90;999.90;;;;;;;16.50;100.00;101188.88;10504101;28;20050;-67
2023/10/12 23:22:00;;;;;;;1999.90;999.90;;;;;;;16.51;100.00;101195.03;10503239;28;20053;-67
2023/10/12 23:27:03;;;;;;;1999.90;999.90;;;;;;;16.70;100.00;101194.47;10503109;28;20044;-67
2023/10/12 23:32:08;;;;;;;1999.90;999.90;;;;;;;16.58;100.00;101193.59;10503582;28;20123;-67
2023/10/12 23:37:14;;;;;;;1999.90;999.90;;;;;;;16.62;100.00;101197.69;10502568;28;20564;-67
2023/10/12 23:42:18;;;;;;;1999.90;999.90;;;;;;;16.62;100.00;101202.97;10502458;28;20052;-67
2023/10/12 23:47:39;;;;;;;1999.90;999.90;;;;;;;16.67;100.00;101205.25;10484504;28;20059;-67
2023/10/12 23:52:57;;;;;;;;;;;;;;;16.58;100.00;101193.59;10502260;28;20045;-67
2023/10/12 23:58:02;;;;;;;1999.90;999.90;;;;;;;16.65;100.00;101202.72;10484192;28;19931;-67
